sensor_id;sensor_type;location;lat;lon;timestamp;pressure;altitude;pressure_sealevel;temperature;humidity
72210;BME280;60113;48.762;12.302;2023-06-26T00:02:14;97309.63;;;12.72;53.53
72210;BME280;60113;48.762;12.302;2023-06-26T00:04:52;97311.66;;;12.69;56.59
72210;BME280;60113;48.762;12.302;2023-06-26T00:07:31;97305.00;;;12.65;60.32
72210;BME280;60113;48.762;12.302;2023-06-26T00:10:02;97306.22;;;12.60;57.15
72210;BME280;60113;48.762;12.302;2023-06-26T00:12:46;97306.59;;;12.56;61.91
72210;BME280;60113;48.762;12.302;2023-06-26T00:15:11;97305.16;;;12.52;64.69
72210;BME280;60113;48.762;12.302;2023-06-26T00:17:46;97305.41;;;12.48;55.43
72210;BME280;60113;48.762;12.302;2023-06-26T00:20:20;97305.00;;;12.43;57.94
72210;BME280;60113;48.762;12.302;2023-06-26T00:22:45;97313.28;;;12.38;56.46
72210;BME280;60113;48.762;12.302;2023-06-26T00:25:17;97319.63;;;12.36;60.13
72210;BME280;60113;48.762;12.302;2023-06-26T00:27:51;97318.19;;;12.32;56.62
72210;BME280;60113;48.762;12.302;2023-06-26T00:30:28;97308.63;;;12.31;51.65
72210;BME280;60113;48.762;12.302;2023-06-26T00:33:02;97309.69;;;12.28;53.75
72210;BME280;60113;48.762;12.302;2023-06-26T00:35:30;97318.84;;;12.24;56.89
72210;BME280;60113;48.762;12.302;2023-06-26T00:37:58;97317.41;;;12.20;59.91
72210;BME280;60113;48.762;12.302;2023-06-26T00:40:27;97319.34;;;12.18;54.26
72210;BME280;60113;48.762;12.302;2023-06-26T00:42:52;97319.47;;;12.16;53.68
72210;BME280;60113;48.762;12.302;2023-06-26T00:45:18;97324.00;;;12.14;55.89
72210;BME280;60113;48.762;12.302;2023-06-26T00:48:03;97322.59;;;12.10;60.35
72210;BME280;60113;48.762;12.302;2023-06-26T00:50:47;97321.75;;;12.09;60.14
72210;BME280;60113;48.762;12.302;2023-06-26T00:53:12;97322.81;;;12.07;54.18
72210;BME280;60113;48.762;12.302;2023-06-26T00:55:38;97322.22;;;12.03;55.01
72210;BME280;60113;48.762;12.302;2023-06-26T00:58:03;97313.75;;;11.99;54.49
72210;BME280;60113;48.762;12.302;2023-06-26T01:00:48;97316.75;;;11.95;61.91
72210;BME280;60113;48.762;12.302;2023-06-26T01:03:22;97318.66;;;11.93;52.70
72210;BME280;60113;48.762;12.302;2023-06-26T01:05:48;97315.44;;;11.89;55.90
72210;BME280;60113;48.762;12.302;2023-06-26T01:08:19;97323.34;;;11.89;58.56
72210;BME280;60113;48.762;12.302;2023-06-26T01:10:57;97314.72;;;11.87;63.21
72210;BME280;60113;48.762;12.302;2023-06-26T01:13:24;97306.09;;;11.85;58.09
72210;BME280;60113;48.762;12.302;2023-06-26T01:15:53;97313.31;;;11.83;58.64
72210;BME280;60113;48.762;12.302;2023-06-26T01:18:27;97311.75;;;11.80;61.27
72210;BME280;60113;48.762;12.302;2023-06-26T01:20:59;97315.47;;;11.78;62.90
72210;BME280;60113;48.762;12.302;2023-06-26T01:23:49;97312.97;;;11.76;60.99
72210;BME280;60113;48.762;12.302;2023-06-26T01:26:23;97308.91;;;11.72;54.16
72210;BME280;60113;48.762;12.302;2023-06-26T01:28:51;97314.28;;;11.70;64.38
72210;BME280;60113;48.762;12.302;2023-06-26T01:31:29;97313.44;;;11.70;67.25
72210;BME280;60113;48.762;12.302;2023-06-26T01:34:08;97317.28;;;11.66;70.44
72210;BME280;60113;48.762;12.302;2023-06-26T01:36:45;97313.56;;;11.68;56.39
72210;BME280;60113;48.762;12.302;2023-06-26T01:39:14;97308.91;;;11.72;63.03
72210;BME280;60113;48.762;12.302;2023-06-26T01:41:50;97309.72;;;11.72;57.41
72210;BME280;60113;48.762;12.302;2023-06-26T01:44:37;97302.69;;;11.73;63.44
72210;BME280;60113;48.762;12.302;2023-06-26T01:47:22;97303.28;;;11.77;66.99
72210;BME280;60113;48.762;12.302;2023-06-26T01:50:11;97300.53;;;11.78;66.64
72210;BME280;60113;48.762;12.302;2023-06-26T01:52:42;97300.88;;;11.73;59.93
72210;BME280;60113;48.762;12.302;2023-06-26T01:55:32;97297.53;;;11.71;63.61
72210;BME280;60113;48.762;12.302;2023-06-26T01:58:14;97294.53;;;11.65;57.52
72210;BME280;60113;48.762;12.302;2023-06-26T02:00:50;97297.66;;;11.58;61.00
72210;BME280;60113;48.762;12.302;2023-06-26T02:03:25;97301.50;;;11.54;60.87
72210;BME280;60113;48.762;12.302;2023-06-26T02:05:50;97296.38;;;11.53;62.57
72210;BME280;60113;48.762;12.302;2023-06-26T02:08:35;97295.63;;;11.50;62.86
72210;BME280;60113;48.762;12.302;2023-06-26T02:11:10;97295.88;;;11.47;60.95
72210;BME280;60113;48.762;12.302;2023-06-26T02:13:35;97298.63;;;11.46;54.96
72210;BME280;60113;48.762;12.302;2023-06-26T02:16:03;97299.00;;;11.41;61.35
72210;BME280;60113;48.762;12.302;2023-06-26T02:18:31;97303.56;;;11.39;63.14
72210;BME280;60113;48.762;12.302;2023-06-26T02:21:09;97302.00;;;11.36;54.02
72210;BME280;60113;48.762;12.302;2023-06-26T02:23:34;97308.47;;;11.32;63.08
72210;BME280;60113;48.762;12.302;2023-06-26T02:26:08;97309.53;;;11.30;64.54
72210;BME280;60113;48.762;12.302;2023-06-26T02:28:34;97308.94;;;11.26;64.31
72210;BME280;60113;48.762;12.302;2023-06-26T02:31:02;97310.03;;;11.23;69.29
72210;BME280;60113;48.762;12.302;2023-06-26T02:33:46;97311.81;;;11.23;64.04
72210;BME280;60113;48.762;12.302;2023-06-26T02:36:11;97305.00;;;11.20;74.79
72210;BME280;60113;48.762;12.302;2023-06-26T02:38:40;97303.47;;;11.18;68.13
72210;BME280;60113;48.762;12.302;2023-06-26T02:41:14;97301.88;;;11.15;68.79
72210;BME280;60113;48.762;12.302;2023-06-26T02:43:51;97297.59;;;11.14;77.88
72210;BME280;60113;48.762;12.302;2023-06-26T02:46:19;97304.63;;;11.13;72.63
72210;BME280;60113;48.762;12.302;2023-06-26T02:48:47;97301.06;;;11.15;65.61
72210;BME280;60113;48.762;12.302;2023-06-26T02:51:32;97299.13;;;11.17;59.74
72210;BME280;60113;48.762;12.302;2023-06-26T02:54:01;97306.22;;;11.16;60.32
72210;BME280;60113;48.762;12.302;2023-06-26T02:56:44;97300.22;;;11.14;57.38
72210;BME280;60113;48.762;12.302;2023-06-26T02:59:15;97305.59;;;11.12;65.24
72210;BME280;60113;48.762;12.302;2023-06-26T03:01:53;97308.47;;;11.09;64.02
72210;BME280;60113;48.762;12.302;2023-06-26T03:04:18;97301.78;;;11.05;65.28
72210;BME280;60113;48.762;12.302;2023-06-26T03:06:46;97298.31;;;11.05;63.81
72210;BME280;60113;48.762;12.302;2023-06-26T03:09:23;97302.00;;;11.02;63.61
72210;BME280;60113;48.762;12.302;2023-06-26T03:11:49;97310.13;;;10.99;59.11
72210;BME280;60113;48.762;12.302;2023-06-26T03:14:14;97306.78;;;10.97;61.47
72210;BME280;60113;48.762;12.302;2023-06-26T03:16:54;97311.31;;;10.95;70.52
72210;BME280;60113;48.762;12.302;2023-06-26T03:19:35;97314.91;;;10.94;70.29
72210;BME280;60113;48.762;12.302;2023-06-26T03:22:15;97307.97;;;10.93;68.13
72210;BME280;60113;48.762;12.302;2023-06-26T03:24:44;97308.69;;;10.95;63.61
72210;BME280;60113;48.762;12.302;2023-06-26T03:27:10;97308.44;;;10.98;70.28
72210;BME280;60113;48.762;12.302;2023-06-26T03:29:39;97314.56;;;10.98;58.64
72210;BME280;60113;48.762;12.302;2023-06-26T03:32:13;97308.22;;;11.01;60.72
72210;BME280;60113;48.762;12.302;2023-06-26T03:34:50;97305.47;;;11.03;63.98
72210;BME280;60113;48.762;12.302;2023-06-26T03:37:21;97307.16;;;11.04;59.26
72210;BME280;60113;48.762;12.302;2023-06-26T03:40:06;97308.81;;;11.05;61.39
72210;BME280;60113;48.762;12.302;2023-06-26T03:42:31;97302.72;;;11.04;58.71
72210;BME280;60113;48.762;12.302;2023-06-26T03:45:06;97307.84;;;11.06;61.57
72210;BME280;60113;48.762;12.302;2023-06-26T03:47:34;97310.38;;;11.07;60.33
72210;BME280;60113;48.762;12.302;2023-06-26T03:49:59;97310.25;;;11.09;57.86
72210;BME280;60113;48.762;12.302;2023-06-26T03:52:25;97313.59;;;11.11;59.37
72210;BME280;60113;48.762;12.302;2023-06-26T03:54:50;97313.38;;;11.14;61.02
72210;BME280;60113;48.762;12.302;2023-06-26T03:57:16;97309.66;;;11.17;59.60
72210;BME280;60113;48.762;12.302;2023-06-26T03:59:47;97303.34;;;11.19;63.74
72210;BME280;60113;48.762;12.302;2023-06-26T04:02:12;97310.16;;;11.22;65.54
72210;BME280;60113;48.762;12.302;2023-06-26T04:04:37;97313.38;;;11.25;64.75
72210;BME280;60113;48.762;12.302;2023-06-26T04:07:14;97313.97;;;11.29;63.96
72210;BME280;60113;48.762;12.302;2023-06-26T04:09:42;97316.34;;;11.32;62.89
72210;BME280;60113;48.762;12.302;2023-06-26T04:12:26;97319.59;;;11.36;57.88
72210;BME280;60113;48.762;12.302;2023-06-26T04:14:54;97308.72;;;11.41;61.73
72210;BME280;60113;48.762;12.302;2023-06-26T04:17:38;97304.63;;;11.48;63.35
72210;BME280;60113;48.762;12.302;2023-06-26T04:20:04;97305.00;;;11.55;66.21
72210;BME280;60113;48.762;12.302;2023-06-26T04:22:33;97302.56;;;11.63;66.34
72210;BME280;60113;48.762;12.302;2023-06-26T04:25:03;97296.69;;;11.71;59.43
72210;BME280;60113;48.762;12.302;2023-06-26T04:27:40;97302.78;;;11.83;58.90
72210;BME280;60113;48.762;12.302;2023-06-26T04:30:17;97300.94;;;11.95;54.41
72210;BME280;60113;48.762;12.302;2023-06-26T04:32:43;97302.84;;;12.04;60.05
72210;BME280;60113;48.762;12.302;2023-06-26T04:35:08;97305.56;;;12.14;57.18
72210;BME280;60113;48.762;12.302;2023-06-26T04:37:49;97305.66;;;12.24;56.79
72210;BME280;60113;48.762;12.302;2023-06-26T04:40:15;97309.19;;;12.34;57.55
72210;BME280;60113;48.762;12.302;2023-06-26T04:42:43;97303.97;;;12.56;58.96
72210;BME280;60113;48.762;12.302;2023-06-26T04:45:11;97303.53;;;13.03;57.85
72210;BME280;60113;48.762;12.302;2023-06-26T04:47:36;97300.88;;;13.66;59.76
72210;BME280;60113;48.762;12.302;2023-06-26T04:50:02;97299.72;;;14.29;60.37
72210;BME280;60113;48.762;12.302;2023-06-26T04:52:27;97295.06;;;14.91;60.81
72210;BME280;60113;48.762;12.302;2023-06-26T04:54:58;97292.69;;;15.54;58.72
72210;BME280;60113;48.762;12.302;2023-06-26T04:57:29;97285.88;;;16.07;58.17
72210;BME280;60113;48.762;12.302;2023-06-26T05:00:01;97282.94;;;16.55;58.56
72210;BME280;60113;48.762;12.302;2023-06-26T05:02:26;97288.59;;;17.05;59.70
72210;BME280;60113;48.762;12.302;2023-06-26T05:05:10;97297.34;;;17.67;59.07
72210;BME280;60113;48.762;12.302;2023-06-26T05:07:35;97292.00;;;18.27;58.81
72210;BME280;60113;48.762;12.302;2023-06-26T05:10:19;97289.97;;;18.79;58.91
72210;BME280;60113;48.762;12.302;2023-06-26T05:12:45;97287.78;;;19.08;58.94
72210;BME280;60113;48.762;12.302;2023-06-26T05:15:19;97294.25;;;19.30;60.10
72210;BME280;60113;48.762;12.302;2023-06-26T05:17:44;97283.09;;;19.58;59.79
72210;BME280;60113;48.762;12.302;2023-06-26T05:20:15;97281.75;;;20.03;59.62
72210;BME280;60113;48.762;12.302;2023-06-26T05:22:47;97279.34;;;20.55;58.80
72210;BME280;60113;48.762;12.302;2023-06-26T05:25:16;97270.03;;;21.04;58.12
72210;BME280;60113;48.762;12.302;2023-06-26T05:27:56;97278.16;;;21.56;57.81
72210;BME280;60113;48.762;12.302;2023-06-26T05:30:31;97277.41;;;22.00;56.79
72210;BME280;60113;48.762;12.302;2023-06-26T05:33:00;97273.84;;;22.36;56.76
72210;BME280;60113;48.762;12.302;2023-06-26T05:35:36;97267.22;;;22.54;56.71
72210;BME280;60113;48.762;12.302;2023-06-26T05:38:20;97261.59;;;22.48;58.09
72210;BME280;60113;48.762;12.302;2023-06-26T05:40:46;97268.16;;;22.46;58.92
72210;BME280;60113;48.762;12.302;2023-06-26T05:43:14;97267.78;;;22.49;59.69
72210;BME280;60113;48.762;12.302;2023-06-26T05:45:59;97272.50;;;22.47;59.78
72210;BME280;60113;48.762;12.302;2023-06-26T05:48:27;97267.22;;;22.54;59.87
72210;BME280;60113;48.762;12.302;2023-06-26T05:50:55;97273.56;;;22.75;60.29
72210;BME280;60113;48.762;12.302;2023-06-26T05:53:23;97266.19;;;23.12;59.98
72210;BME280;60113;48.762;12.302;2023-06-26T05:55:51;97268.09;;;23.60;59.41
72210;BME280;60113;48.762;12.302;2023-06-26T05:58:36;97268.00;;;23.89;58.51
72210;BME280;60113;48.762;12.302;2023-06-26T06:01:04;97266.56;;;24.07;59.09
72210;BME280;60113;48.762;12.302;2023-06-26T06:03:29;97275.50;;;24.21;58.55
72210;BME280;60113;48.762;12.302;2023-06-26T06:05:55;97269.72;;;24.24;57.57
72210;BME280;60113;48.762;12.302;2023-06-26T06:08:20;97269.09;;;24.15;57.94
72210;BME280;60113;48.762;12.302;2023-06-26T06:10:45;97274.25;;;24.17;57.74
72210;BME280;60113;48.762;12.302;2023-06-26T06:13:11;97267.25;;;24.36;57.92
72210;BME280;60113;48.762;12.302;2023-06-26T06:15:45;97268.91;;;24.71;57.99
72210;BME280;60113;48.762;12.302;2023-06-26T06:18:10;97267.47;;;25.02;58.08
72210;BME280;60113;48.762;12.302;2023-06-26T06:20:45;97268.59;;;25.40;57.46
72210;BME280;60113;48.762;12.302;2023-06-26T06:23:16;97268.69;;;25.72;56.40
72210;BME280;60113;48.762;12.302;2023-06-26T06:25:44;97270.69;;;25.91;55.90
72210;BME280;60113;48.762;12.302;2023-06-26T06:28:21;97262.84;;;26.15;56.33
72210;BME280;60113;48.762;12.302;2023-06-26T06:30:49;97264.78;;;26.40;55.70
72210;BME280;60113;48.762;12.302;2023-06-26T06:33:17;97265.72;;;26.52;55.29
72210;BME280;60113;48.762;12.302;2023-06-26T06:35:45;97274.53;;;26.66;55.32
72210;BME280;60113;48.762;12.302;2023-06-26T06:38:13;97264.91;;;26.77;56.01
72210;BME280;60113;48.762;12.302;2023-06-26T06:40:39;97262.34;;;26.82;54.68
72210;BME280;60113;48.762;12.302;2023-06-26T06:43:07;97256.06;;;26.89;54.90
72210;BME280;60113;48.762;12.302;2023-06-26T06:45:41;97264.28;;;27.01;55.82
72210;BME280;60113;48.762;12.302;2023-06-26T06:48:16;97263.97;;;27.09;54.86
72210;BME280;60113;48.762;12.302;2023-06-26T06:50:41;97257.34;;;27.30;55.54
72210;BME280;60113;48.762;12.302;2023-06-26T06:53:18;97255.81;;;27.53;55.92
72210;BME280;60113;48.762;12.302;2023-06-26T06:55:48;97255.81;;;27.72;55.42
72210;BME280;60113;48.762;12.302;2023-06-26T06:58:36;97265.38;;;27.87;54.74
72210;BME280;60113;48.762;12.302;2023-06-26T07:01:20;97261.06;;;27.98;51.32
72210;BME280;60113;48.762;12.302;2023-06-26T07:03:46;97257.19;;;27.93;53.41
72210;BME280;60113;48.762;12.302;2023-06-26T07:06:14;97264.66;;;27.79;52.96
72210;BME280;60113;48.762;12.302;2023-06-26T07:08:42;97260.09;;;27.80;52.41
72210;BME280;60113;48.762;12.302;2023-06-26T07:11:26;97258.94;;;27.88;52.58
72210;BME280;60113;48.762;12.302;2023-06-26T07:14:00;97259.44;;;27.96;52.34
72210;BME280;60113;48.762;12.302;2023-06-26T07:16:28;97254.34;;;27.88;50.53
72210;BME280;60113;48.762;12.302;2023-06-26T07:18:54;97249.81;;;27.70;50.49
72210;BME280;60113;48.762;12.302;2023-06-26T07:21:31;97253.63;;;27.62;50.17
72210;BME280;60113;48.762;12.302;2023-06-26T07:24:15;97258.19;;;27.62;49.48
72210;BME280;60113;48.762;12.302;2023-06-26T07:26:52;97259.03;;;27.81;50.00
72210;BME280;60113;48.762;12.302;2023-06-26T07:29:21;97252.09;;;27.85;48.46
72210;BME280;60113;48.762;12.302;2023-06-26T07:31:46;97255.13;;;27.77;48.30
72210;BME280;60113;48.762;12.302;2023-06-26T07:34:13;97256.63;;;27.73;43.09
72210;BME280;60113;48.762;12.302;2023-06-26T07:36:41;97256.56;;;27.79;46.45
72210;BME280;60113;48.762;12.302;2023-06-26T07:39:13;97255.41;;;27.87;47.89
72210;BME280;60113;48.762;12.302;2023-06-26T07:41:53;97245.25;;;28.13;46.54
72210;BME280;60113;48.762;12.302;2023-06-26T07:44:20;97261.59;;;28.18;47.12
72210;BME280;60113;48.762;12.302;2023-06-26T07:46:45;97247.19;;;28.25;44.51
72210;BME280;60113;48.762;12.302;2023-06-26T07:49:43;97245.41;;;28.18;45.04
72210;BME280;60113;48.762;12.302;2023-06-26T07:52:20;97247.88;;;28.20;44.09
72210;BME280;60113;48.762;12.302;2023-06-26T07:54:46;97250.28;;;28.09;44.60
72210;BME280;60113;48.762;12.302;2023-06-26T07:57:17;97248.88;;;28.07;43.56
72210;BME280;60113;48.762;12.302;2023-06-26T07:59:42;97252.53;;;28.13;42.42
72210;BME280;60113;48.762;12.302;2023-06-26T08:02:10;97250.41;;;28.33;43.36
72210;BME280;60113;48.762;12.302;2023-06-26T08:04:38;97251.25;;;28.58;44.20
72210;BME280;60113;48.762;12.302;2023-06-26T08:07:10;97252.06;;;28.82;41.75
72210;BME280;60113;48.762;12.302;2023-06-26T08:09:44;97249.00;;;28.91;41.84
72210;BME280;60113;48.762;12.302;2023-06-26T08:12:13;97244.00;;;28.94;42.89
72210;BME280;60113;48.762;12.302;2023-06-26T08:14:38;97246.78;;;29.00;42.98
72210;BME280;60113;48.762;12.302;2023-06-26T08:17:04;97240.56;;;29.11;42.52
72210;BME280;60113;48.762;12.302;2023-06-26T08:19:29;97238.22;;;29.15;42.05
72210;BME280;60113;48.762;12.302;2023-06-26T08:22:00;97233.69;;;29.32;41.10
72210;BME280;60113;48.762;12.302;2023-06-26T08:24:28;97236.75;;;29.36;41.93
72210;BME280;60113;48.762;12.302;2023-06-26T08:26:57;97228.94;;;29.40;39.66
72210;BME280;60113;48.762;12.302;2023-06-26T08:29:23;97235.63;;;29.49;40.81
72210;BME280;60113;48.762;12.302;2023-06-26T08:31:57;97221.44;;;29.42;41.24
72210;BME280;60113;48.762;12.302;2023-06-26T08:34:22;97228.81;;;29.58;41.32
72210;BME280;60113;48.762;12.302;2023-06-26T08:36:56;97224.22;;;29.88;40.90
72210;BME280;60113;48.762;12.302;2023-06-26T08:39:21;97227.81;;;30.23;40.67
72210;BME280;60113;48.762;12.302;2023-06-26T08:41:59;97222.81;;;30.32;39.99
72210;BME280;60113;48.762;12.302;2023-06-26T08:44:30;97215.91;;;30.41;40.43
72210;BME280;60113;48.762;12.302;2023-06-26T08:47:04;97218.28;;;30.55;39.88
72210;BME280;60113;48.762;12.302;2023-06-26T08:49:43;97212.44;;;30.63;38.03
72210;BME280;60113;48.762;12.302;2023-06-26T08:52:19;97218.38;;;30.60;35.65
72210;BME280;60113;48.762;12.302;2023-06-26T08:54:52;97217.28;;;30.78;37.54
72210;BME280;60113;48.762;12.302;2023-06-26T08:57:18;97197.16;;;30.91;39.00
72210;BME280;60113;48.762;12.302;2023-06-26T08:59:46;97206.28;;;31.07;38.27
72210;BME280;60113;48.762;12.302;2023-06-26T09:02:21;97202.22;;;31.27;38.19
72210;BME280;60113;48.762;12.302;2023-06-26T09:04:49;97205.94;;;31.43;37.68
72210;BME280;60113;48.762;12.302;2023-06-26T09:07:24;97206.03;;;31.54;37.88
72210;BME280;60113;48.762;12.302;2023-06-26T09:09:49;97197.22;;;31.41;37.09
72210;BME280;60113;48.762;12.302;2023-06-26T09:12:15;97204.34;;;31.25;36.81
72210;BME280;60113;48.762;12.302;2023-06-26T09:14:52;97205.22;;;31.31;37.08
72210;BME280;60113;48.762;12.302;2023-06-26T09:17:24;97199.56;;;31.55;32.32
72210;BME280;60113;48.762;12.302;2023-06-26T09:20:10;97200.22;;;31.67;35.90
72210;BME280;60113;48.762;12.302;2023-06-26T09:22:47;97198.22;;;31.58;36.01
72210;BME280;60113;48.762;12.302;2023-06-26T09:25:16;97199.47;;;31.72;35.50
72210;BME280;60113;48.762;12.302;2023-06-26T09:27:54;97208.22;;;31.79;35.42
72210;BME280;60113;48.762;12.302;2023-06-26T09:30:22;97199.84;;;31.59;35.76
72210;BME280;60113;48.762;12.302;2023-06-26T09:32:47;97193.50;;;31.48;36.43
72210;BME280;60113;48.762;12.302;2023-06-26T09:35:14;97192.34;;;31.66;36.54
72210;BME280;60113;48.762;12.302;2023-06-26T09:37:43;97191.75;;;31.91;36.20
72210;BME280;60113;48.762;12.302;2023-06-26T09:40:17;97192.19;;;32.05;34.56
72210;BME280;60113;48.762;12.302;2023-06-26T09:42:46;97189.47;;;31.78;34.13
72210;BME280;60113;48.762;12.302;2023-06-26T09:45:20;97184.53;;;31.47;28.72
72210;BME280;60113;48.762;12.302;2023-06-26T09:48:01;97181.88;;;31.52;30.47
72210;BME280;60113;48.762;12.302;2023-06-26T09:50:28;97183.81;;;31.57;34.29
72210;BME280;60113;48.762;12.302;2023-06-26T09:52:55;97178.25;;;31.69;35.01
72210;BME280;60113;48.762;12.302;2023-06-26T09:55:25;97175.88;;;31.78;31.37
72210;BME280;60113;48.762;12.302;2023-06-26T09:57:51;97174.72;;;31.68;32.91
72210;BME280;60113;48.762;12.302;2023-06-26T10:00:17;97175.81;;;31.73;33.93
72210;BME280;60113;48.762;12.302;2023-06-26T10:02:43;97169.09;;;31.75;33.54
72210;BME280;60113;48.762;12.302;2023-06-26T10:05:28;97166.19;;;31.87;33.96
72210;BME280;60113;48.762;12.302;2023-06-26T10:08:04;97170.94;;;31.97;32.66
72210;BME280;60113;48.762;12.302;2023-06-26T10:10:38;97158.84;;;32.15;33.42
72210;BME280;60113;48.762;12.302;2023-06-26T10:13:22;97151.84;;;32.25;27.95
72210;BME280;60113;48.762;12.302;2023-06-26T10:15:58;97155.78;;;32.44;34.02
72210;BME280;60113;48.762;12.302;2023-06-26T10:18:27;97146.66;;;32.56;32.12
72210;BME280;60113;48.762;12.302;2023-06-26T10:20:59;97149.31;;;32.51;33.60
72210;BME280;60113;48.762;12.302;2023-06-26T10:23:36;97147.22;;;32.68;31.57
72210;BME280;60113;48.762;12.302;2023-06-26T10:26:05;97144.88;;;32.88;34.14
72210;BME280;60113;48.762;12.302;2023-06-26T10:28:50;97144.22;;;33.18;32.27
72210;BME280;60113;48.762;12.302;2023-06-26T10:31:31;97137.47;;;33.32;31.80
72210;BME280;60113;48.762;12.302;2023-06-26T10:33:59;97140.28;;;33.63;33.42
72210;BME280;60113;48.762;12.302;2023-06-26T10:36:38;97139.19;;;33.69;32.69
72210;BME280;60113;48.762;12.302;2023-06-26T10:39:16;97139.38;;;33.36;32.16
72210;BME280;60113;48.762;12.302;2023-06-26T10:41:45;97144.19;;;33.08;31.00
72210;BME280;60113;48.762;12.302;2023-06-26T10:44:16;97137.81;;;32.92;32.33
72210;BME280;60113;48.762;12.302;2023-06-26T10:46:51;97129.50;;;33.09;27.94
72210;BME280;60113;48.762;12.302;2023-06-26T10:49:29;97133.59;;;33.17;29.20
72210;BME280;60113;48.762;12.302;2023-06-26T10:52:00;97132.25;;;33.20;30.60
72210;BME280;60113;48.762;12.302;2023-06-26T10:54:32;97132.47;;;33.08;32.43
72210;BME280;60113;48.762;12.302;2023-06-26T10:57:07;97130.53;;;32.98;32.77
72210;BME280;60113;48.762;12.302;2023-06-26T10:59:39;97124.91;;;33.15;31.38
72210;BME280;60113;48.762;12.302;2023-06-26T11:02:13;97126.03;;;33.40;33.25
72210;BME280;60113;48.762;12.302;2023-06-26T11:04:46;97122.53;;;33.55;31.03
72210;BME280;60113;48.762;12.302;2023-06-26T11:07:30;97118.47;;;33.68;32.73
72210;BME280;60113;48.762;12.302;2023-06-26T11:10:16;97111.69;;;33.97;33.48
72210;BME280;60113;48.762;12.302;2023-06-26T11:12:43;97113.28;;;34.13;30.37
72210;BME280;60113;48.762;12.302;2023-06-26T11:15:19;97117.94;;;34.18;30.19
72210;BME280;60113;48.762;12.302;2023-06-26T11:17:47;97117.09;;;34.02;31.83
72210;BME280;60113;48.762;12.302;2023-06-26T11:20:15;97112.47;;;34.13;32.19
72210;BME280;60113;48.762;12.302;2023-06-26T11:22:43;97108.97;;;33.97;32.93
72210;BME280;60113;48.762;12.302;2023-06-26T11:25:20;97105.97;;;33.98;32.76
72210;BME280;60113;48.762;12.302;2023-06-26T11:27:46;97097.50;;;34.21;33.02
72210;BME280;60113;48.762;12.302;2023-06-26T11:30:25;97099.41;;;34.25;24.74
72210;BME280;60113;48.762;12.302;2023-06-26T11:33:09;97089.31;;;34.26;26.97
72210;BME280;60113;48.762;12.302;2023-06-26T11:35:35;97100.22;;;34.10;31.02
72210;BME280;60113;48.762;12.302;2023-06-26T11:38:03;97100.25;;;33.74;25.88
72210;BME280;60113;48.762;12.302;2023-06-26T11:40:34;97106.75;;;33.62;28.76
72210;BME280;60113;48.762;12.302;2023-06-26T11:43:14;97097.44;;;33.48;27.96
72210;BME280;60113;48.762;12.302;2023-06-26T11:45:43;97103.19;;;33.41;31.45
72210;BME280;60113;48.762;12.302;2023-06-26T11:48:11;97095.56;;;33.48;29.59
72210;BME280;60113;48.762;12.302;2023-06-26T11:50:37;97096.09;;;33.45;32.68
72210;BME280;60113;48.762;12.302;2023-06-26T11:53:02;97095.88;;;33.67;30.33
72210;BME280;60113;48.762;12.302;2023-06-26T11:55:41;97088.50;;;33.84;30.21
72210;BME280;60113;48.762;12.302;2023-06-26T11:58:07;97093.16;;;33.99;32.39
72210;BME280;60113;48.762;12.302;2023-06-26T12:00:33;97078.72;;;33.77;31.10
72210;BME280;60113;48.762;12.302;2023-06-26T12:03:01;97086.34;;;33.65;30.05
72210;BME280;60113;48.762;12.302;2023-06-26T12:05:46;97079.47;;;33.41;30.41
72210;BME280;60113;48.762;12.302;2023-06-26T12:08:12;97071.31;;;33.26;30.60
72210;BME280;60113;48.762;12.302;2023-06-26T12:10:49;97075.34;;;33.08;29.77
72210;BME280;60113;48.762;12.302;2023-06-26T12:13:21;97071.22;;;32.95;30.61
72210;BME280;60113;48.762;12.302;2023-06-26T12:15:46;97069.28;;;32.90;30.14
72210;BME280;60113;48.762;12.302;2023-06-26T12:18:11;97064.13;;;32.88;29.49
72210;BME280;60113;48.762;12.302;2023-06-26T12:20:43;97067.13;;;32.97;31.47
72210;BME280;60113;48.762;12.302;2023-06-26T12:23:23;97066.88;;;33.04;27.80
72210;BME280;60113;48.762;12.302;2023-06-26T12:25:54;97064.16;;;33.04;27.91
72210;BME280;60113;48.762;12.302;2023-06-26T12:28:38;97072.59;;;33.02;26.63
72210;BME280;60113;48.762;12.302;2023-06-26T12:31:16;97071.84;;;33.28;28.02
72210;BME280;60113;48.762;12.302;2023-06-26T12:33:44;97065.06;;;33.30;26.91
72210;BME280;60113;48.762;12.302;2023-06-26T12:36:13;97066.41;;;33.38;28.26
72210;BME280;60113;48.762;12.302;2023-06-26T12:38:41;97074.56;;;33.17;27.81
72210;BME280;60113;48.762;12.302;2023-06-26T12:41:25;97055.16;;;33.03;29.23
72210;BME280;60113;48.762;12.302;2023-06-26T12:43:55;97062.19;;;32.89;26.00
72210;BME280;60113;48.762;12.302;2023-06-26T12:46:33;97067.09;;;32.92;26.70
72210;BME280;60113;48.762;12.302;2023-06-26T12:49:12;97059.22;;;32.90;29.04
72210;BME280;60113;48.762;12.302;2023-06-26T12:51:37;97056.50;;;32.85;30.72
72210;BME280;60113;48.762;12.302;2023-06-26T12:54:03;97058.34;;;32.79;29.63
72210;BME280;60113;48.762;12.302;2023-06-26T12:56:31;97062.38;;;32.61;28.82
72210;BME280;60113;48.762;12.302;2023-06-26T12:59:03;97064.03;;;32.62;28.65
72210;BME280;60113;48.762;12.302;2023-06-26T13:01:31;97059.69;;;32.72;28.81
72210;BME280;60113;48.762;12.302;2023-06-26T13:03:59;97052.41;;;32.88;29.53
72210;BME280;60113;48.762;12.302;2023-06-26T13:06:25;97046.44;;;32.91;29.30
72210;BME280;60113;48.762;12.302;2023-06-26T13:08:51;97045.41;;;33.08;30.38
72210;BME280;60113;48.762;12.302;2023-06-26T13:11:17;97049.78;;;33.19;28.72
72210;BME280;60113;48.762;12.302;2023-06-26T13:13:43;97049.00;;;33.39;30.06
72210;BME280;60113;48.762;12.302;2023-06-26T13:16:08;97044.09;;;33.57;30.11